Time;durP1;ratioP1;P1;durP2;ratioP2;P2;SDS_P1;SDS_P2;PMS_P1;PMS_P2;Temp;Humidity;BMP_temperature;BMP_pressure;BME280_temperature;BME280_humidity;BME280_pressure;Samples;Min_cycle;Max_cycle;Signal;HPM_P1;HPM_P2
2021/05/23 00:00:00;;;;;;;4.97;1.20;;;30.10;10.80;;;;;;5054792;28;20109;-61
2021/05/23 00:02:26;;;;;;;5.72;1.58;;;30.20;10.70;;;;;;5053044;28;20069;-62
2021/05/23 00:04:53;;;;;;;5.38;1.40;;;30.00;10.60;;;;;;5051826;28;20074;-60
2021/05/23 00:07:26;;;;;;;5.50;1.50;;;29.90;10.60;;;;;;5042184;28;20096;-59
2021/05/23 00:09:54;;;;;;;11.63;2.38;;;29.70;10.70;;;;;;5032522;28;20104;-61
2021/05/23 00:12:20;;;;;;;8.32;1.77;;;29.60;10.90;;;;;;5051108;28;20081;-61
2021/05/23 00:14:47;;;;;;;6.32;1.50;;;29.70;11.00;;;;;;5052752;28;20072;-63
2021/05/23 00:17:13;;;;;;;7.43;1.55;;;29.70;11.00;;;;;;5048327;28;20450;-61
2021/05/23 00:19:40;;;;;;;11.20;1.60;;;29.60;10.90;;;;;;5049457;28;20127;-62
2021/05/23 00:22:06;;;;;;;6.38;1.40;;;29.70;11.20;;;;;;5055730;28;20077;-62
2021/05/23 00:24:33;;;;;;;9.02;1.80;;;29.70;11.50;;;;;;5052491;28;20073;-62
2021/05/23 00:26:59;;;;;;;8.65;1.65;;;29.80;10.90;;;;;;5052179;28;20066;-61
2021/05/23 00:29:26;;;;;;;5.80;1.38;;;29.60;10.80;;;;;;5052268;28;20163;-62
2021/05/23 00:31:53;;;;;;;4.10;1.25;;;29.30;10.90;;;;;;5052166;28;20116;-62
2021/05/23 00:34:20;;;;;;;3.97;1.27;;;29.20;11.00;;;;;;5049850;28;20372;-62
2021/05/23 00:36:46;;;;;;;4.38;1.65;;;29.20;11.20;;;;;;5054636;28;20163;-62
2021/05/23 00:39:13;;;;;;;5.07;1.55;;;29.20;11.10;;;;;;5050856;28;20077;-62
2021/05/23 00:41:39;;;;;;;4.25;1.50;;;29.20;11.10;;;;;;5052100;28;20553;-63
2021/05/23 00:44:06;;;;;;;9.85;1.73;;;29.10;11.30;;;;;;5034099;28;20093;-63
2021/05/23 00:46:33;;;;;;;6.40;1.40;;;29.10;11.30;;;;;;5044223;28;20179;-63
2021/05/23 00:48:59;;;;;;;6.47;1.23;;;29.20;11.30;;;;;;5052427;28;20814;-63
2021/05/23 00:51:26;;;;;;;6.40;1.70;;;29.10;11.20;;;;;;5052863;28;20506;-63
2021/05/23 00:53:52;;;;;;;6.40;1.52;;;29.00;11.30;;;;;;5048697;28;20073;-61
2021/05/23 00:56:20;;;;;;;5.72;1.50;;;28.90;11.40;;;;;;5046057;28;20109;-63
2021/05/23 00:58:47;;;;;;;4.18;1.35;;;28.90;11.80;;;;;;5019323;28;20082;-62
2021/05/23 01:01:35;;;;;;;3.92;1.23;;;29.00;11.70;;;;;;5032276;28;20118;-62
2021/05/23 01:04:02;;;;;;;8.93;1.67;;;29.00;11.50;;;;;;5048748;28;20447;-63
2021/05/23 01:06:31;;;;;;;5.72;1.90;;;28.90;11.60;;;;;;5039135;28;20070;-62
2021/05/23 01:08:58;;;;;;;6.75;1.63;;;28.80;11.70;;;;;;5045037;28;20095;-62
2021/05/23 01:11:30;;;;;;;7.55;2.40;;;28.70;11.50;;;;;;5046788;28;20421;-63
2021/05/23 01:14:19;;;;;;;9.55;1.73;;;28.60;11.80;;;;;;5044752;28;20082;-61
2021/05/23 01:16:55;;;;;;;10.07;2.10;;;28.50;11.90;;;;;;5038671;28;20082;-63
2021/05/23 01:19:56;;;;;;;6.15;2.17;;;28.60;12.20;;;;;;5030581;28;20457;-62
2021/05/23 01:22:42;;;;;;;7.68;2.17;;;28.50;12.10;;;;;;5044526;28;20080;-61
2021/05/23 01:25:20;;;;;;;9.32;2.25;;;28.50;12.10;;;;;;5013579;28;20089;-62
2021/05/23 01:27:50;;;;;;;7.82;1.58;;;28.40;12.30;;;;;;5049751;28;20482;-62
2021/05/23 01:30:19;;;;;;;8.52;1.58;;;28.30;12.00;;;;;;5047717;28;20539;-62
2021/05/23 01:32:47;;;;;;;8.43;2.15;;;28.20;12.30;;;;;;5048977;28;20109;-61
2021/05/23 01:35:22;;;;;;;4.57;1.88;;;28.20;12.30;;;;;;5047934;28;20094;-61
2021/05/23 01:37:59;;;;;;;8.38;1.50;;;28.10;12.20;;;;;;5048796;28;20078;-62
2021/05/23 01:40:32;;;;;;;8.60;2.28;;;28.00;12.10;;;;;;5033915;28;20069;-62
2021/05/23 01:42:58;;;;;;;7.65;2.10;;;27.90;12.50;;;;;;5048917;28;20527;-63
2021/05/23 01:45:26;;;;;;;11.40;2.45;;;28.10;12.00;;;;;;5033941;28;20107;-62
2021/05/23 01:47:53;;;;;;;6.03;1.70;;;28.30;11.70;;;;;;5051107;28;20108;-64
2021/05/23 01:50:21;;;;;;;7.50;1.90;;;28.30;11.90;;;;;;5050223;28;20101;-65
2021/05/23 01:52:53;;;;;;;8.95;1.67;;;28.30;11.60;;;;;;5030838;28;20116;-64
2021/05/23 01:55:20;;;;;;;6.63;1.70;;;28.30;11.60;;;;;;5033820;28;20078;-64
2021/05/23 01:57:47;;;;;;;10.10;1.77;;;28.20;11.80;;;;;;5050848;28;20098;-65
2021/05/23 02:00:17;;;;;;;5.28;1.88;;;27.90;12.20;;;;;;5027609;28;20166;-63
2021/05/23 02:02:44;;;;;;;8.75;2.03;;;27.60;12.50;;;;;;5031338;28;20093;-64
2021/05/23 02:05:11;;;;;;;7.57;1.77;;;27.40;13.00;;;;;;5046583;28;20086;-63
2021/05/23 02:07:38;;;;;;;7.35;1.80;;;27.30;12.60;;;;;;5048625;28;20066;-63
2021/05/23 02:10:08;;;;;;;6.30;1.67;;;27.10;12.60;;;;;;5046114;28;20093;-64
2021/05/23 02:12:34;;;;;;;8.00;1.77;;;26.90;12.70;;;;;;5044294;28;20096;-62
2021/05/23 02:15:03;;;;;;;6.75;1.60;;;26.80;13.00;;;;;;5026064;28;20086;-63
2021/05/23 02:17:33;;;;;;;5.68;1.70;;;26.60;12.90;;;;;;5030124;28;20069;-63
2021/05/23 02:19:59;;;;;;;10.60;2.28;;;26.50;12.70;;;;;;5045713;28;20101;-63
2021/05/23 02:22:26;;;;;;;16.80;9.02;;;26.40;12.80;;;;;;5052572;28;20118;-63
2021/05/23 02:24:55;;;;;;;5.70;2.30;;;26.30;12.80;;;;;;5051157;28;20152;-65
2021/05/23 02:27:21;;;;;;;4.82;1.75;;;26.20;13.00;;;;;;5050003;28;20086;-66
2021/05/23 02:29:48;;;;;;;9.38;1.63;;;26.10;13.10;;;;;;5050409;28;20132;-66
2021/05/23 02:32:14;;;;;;;11.07;2.40;;;26.00;13.90;;;;;;5049626;28;20077;-64
2021/05/23 02:34:50;;;;;;;8.40;2.50;;;25.90;13.70;;;;;;5050644;28;20128;-65
2021/05/23 02:37:16;;;;;;;10.60;2.80;;;25.80;14.10;;;;;;5052703;28;20077;-64
2021/05/23 02:39:43;;;;;;;10.95;2.42;;;25.70;13.60;;;;;;5047872;28;20089;-64
2021/05/23 02:42:09;;;;;;;10.52;2.03;;;25.60;13.90;;;;;;5049134;28;20136;-63
2021/05/23 02:44:36;;;;;;;8.60;2.38;;;25.60;13.80;;;;;;5046730;28;20085;-63
2021/05/23 02:47:02;;;;;;;7.38;1.92;;;25.40;13.90;;;;;;5049213;28;20089;-64
2021/05/23 02:49:29;;;;;;;11.15;2.70;;;25.40;14.10;;;;;;5046824;28;20090;-64
2021/05/23 02:51:56;;;;;;;7.55;2.05;;;25.30;14.30;;;;;;5047895;28;20555;-65
2021/05/23 02:54:22;;;;;;;7.50;2.03;;;25.20;14.30;;;;;;5052334;28;20076;-64
2021/05/23 02:56:49;;;;;;;7.60;2.00;;;25.10;14.40;;;;;;5050868;28;20101;-63
2021/05/23 02:59:15;;;;;;;11.02;2.63;;;25.00;14.40;;;;;;5018404;28;20066;-63
2021/05/23 03:01:42;;;;;;;10.13;3.05;;;25.00;14.50;;;;;;5051012;28;20657;-63
2021/05/23 03:04:08;;;;;;;7.93;2.90;;;24.90;14.80;;;;;;5051950;28;20073;-63
2021/05/23 03:06:35;;;;;;;12.95;2.58;;;24.90;14.90;;;;;;5052060;28;20165;-64
2021/05/23 03:09:01;;;;;;;11.02;2.33;;;24.90;15.30;;;;;;5052382;28;20089;-63
2021/05/23 03:11:28;;;;;;;9.65;2.40;;;24.80;15.70;;;;;;5053060;28;20475;-63
2021/05/23 03:13:54;;;;;;;13.77;2.70;;;24.80;15.70;;;;;;5050837;28;20069;-65
2021/05/23 03:16:21;;;;;;;12.05;2.80;;;24.80;15.60;;;;;;5034641;28;20160;-64
2021/05/23 03:18:50;;;;;;;6.03;2.83;;;24.70;15.40;;;;;;5034631;28;20073;-64
2021/05/23 03:21:18;;;;;;;15.57;3.30;;;24.60;15.60;;;;;;5051855;28;20116;-64
2021/05/23 03:23:44;;;;;;;16.70;3.45;;;24.50;15.60;;;;;;5052032;28;20077;-64
2021/05/23 03:26:11;;;;;;;13.75;2.90;;;24.50;15.90;;;;;;5052672;28;20424;-63
2021/05/23 03:28:37;;;;;;;10.25;2.67;;;24.40;16.10;;;;;;5054513;28;20082;-64
2021/05/23 03:31:04;;;;;;;15.27;3.58;;;24.40;16.20;;;;;;5052337;28;20120;-64
2021/05/23 03:33:30;;;;;;;12.80;3.63;;;24.30;16.30;;;;;;5051132;28;20073;-63
2021/05/23 03:35:56;;;;;;;15.52;3.72;;;24.30;16.50;;;;;;5051620;28;20065;-64
2021/05/23 03:38:23;;;;;;;15.35;3.92;;;24.30;16.50;;;;;;5052021;28;20074;-63
2021/05/23 03:40:50;;;;;;;11.07;4.43;;;24.20;16.70;;;;;;5050379;28;20315;-64
2021/05/23 03:43:16;;;;;;;10.82;3.65;;;24.20;16.30;;;;;;5051758;28;20074;-63
2021/05/23 03:45:43;;;;;;;18.63;4.20;;;24.20;17.00;;;;;;5051949;28;20536;-64
2021/05/23 03:48:09;;;;;;;11.75;3.80;;;24.40;27.20;;;;;;5051019;28;20155;-63
2021/05/23 03:50:36;;;;;;;17.40;3.78;;;24.20;19.60;;;;;;5051907;28;20097;-61
2021/05/23 03:53:03;;;;;;;26.20;4.13;;;24.20;21.60;;;;;;5048917;28;20562;-61
2021/05/23 03:55:30;;;;;;;18.05;4.25;;;24.10;22.40;;;;;;5051142;28;20081;-60
2021/05/23 03:57:57;;;;;;;28.25;4.60;;;24.00;22.70;;;;;;5051013;28;20109;-63
2021/05/23 04:00:26;;;;;;;37.30;5.53;;;24.00;23.30;;;;;;5040423;28;20137;-63
2021/05/23 04:02:54;;;;;;;29.95;4.68;;;23.90;24.00;;;;;;5034127;28;20140;-63
2021/05/23 04:05:23;;;;;;;19.10;4.35;;;23.80;24.50;;;;;;5039662;28;20132;-63
2021/05/23 04:07:50;;;;;;;35.70;5.50;;;23.70;24.80;;;;;;5027530;28;20172;-63
2021/05/23 04:10:19;;;;;;;27.05;5.32;;;23.70;24.90;;;;;;5030628;28;20183;-63
2021/05/23 04:12:48;;;;;;;19.35;5.40;;;23.60;25.10;;;;;;5039660;28;20109;-63
2021/05/23 04:15:18;;;;;;;31.42;6.25;;;23.50;25.20;;;;;;5038829;28;20101;-64
2021/05/23 04:17:45;;;;;;;27.75;6.00;;;23.40;25.40;;;;;;5029535;28;20110;-63
2021/05/23 04:20:15;;;;;;;30.95;7.00;;;23.40;25.50;;;;;;5034053;28;20073;-64
2021/05/23 04:22:42;;;;;;;30.98;6.43;;;23.30;25.70;;;;;;5027572;28;20540;-63
2021/05/23 04:25:12;;;;;;;29.13;6.95;;;23.20;25.70;;;;;;5025432;28;20113;-63
2021/05/23 04:27:39;;;;;;;26.52;6.32;;;23.20;25.70;;;;;;5030762;28;20067;-63
2021/05/23 04:30:07;;;;;;;29.67;6.72;;;23.10;25.60;;;;;;5036077;28;20177;-64
2021/05/23 04:32:35;;;;;;;27.42;5.55;;;23.00;25.60;;;;;;5026734;28;20070;-64
2021/05/23 04:35:02;;;;;;;29.05;5.32;;;23.00;26.30;;;;;;4999565;28;20182;-64
2021/05/23 04:37:29;;;;;;;28.00;5.30;;;22.90;26.00;;;;;;5028868;28;20089;-64
2021/05/23 04:39:55;;;;;;;24.85;5.40;;;22.80;26.00;;;;;;5028910;28;20067;-62
2021/05/23 04:42:22;;;;;;;21.40;4.53;;;22.60;26.10;;;;;;5007983;28;20090;-62
2021/05/23 04:44:49;;;;;;;18.27;4.07;;;22.60;26.10;;;;;;5028186;28;20072;-62
2021/05/23 04:47:16;;;;;;;18.20;3.85;;;22.60;26.10;;;;;;5009175;28;20132;-63
2021/05/23 04:49:43;;;;;;;16.38;3.90;;;22.50;25.90;;;;;;5000912;28;20161;-63
2021/05/23 04:52:12;;;;;;;19.92;5.28;;;22.40;26.00;;;;;;5016340;28;20551;-62
2021/05/23 04:54:40;;;;;;;22.63;4.20;;;22.40;26.10;;;;;;5030443;28;20082;-63
2021/05/23 04:57:08;;;;;;;16.23;3.95;;;22.30;25.80;;;;;;5038951;28;20140;-63
2021/05/23 04:59:35;;;;;;;16.88;4.30;;;22.20;25.70;;;;;;5022644;28;20137;-62
2021/05/23 05:02:02;;;;;;;19.02;3.70;;;22.20;25.80;;;;;;5054229;28;20438;-62
2021/05/23 05:04:28;;;;;;;16.40;3.85;;;22.20;25.90;;;;;;5055048;28;20092;-63
2021/05/23 05:06:55;;;;;;;20.45;4.10;;;22.10;25.90;;;;;;5035608;28;20084;-62
2021/05/23 05:09:22;;;;;;;16.42;4.20;;;22.10;25.90;;;;;;5033167;28;20132;-62
2021/05/23 05:11:49;;;;;;;15.15;3.70;;;22.00;26.20;;;;;;5034420;28;20095;-62
2021/05/23 05:14:17;;;;;;;18.58;3.28;;;22.00;26.20;;;;;;5055603;28;20070;-62
2021/05/23 05:16:43;;;;;;;20.40;3.33;;;21.90;26.30;;;;;;5025185;28;20098;-63
2021/05/23 05:19:10;;;;;;;17.20;3.67;;;21.90;26.40;;;;;;5057558;28;20143;-62
2021/05/23 05:21:37;;;;;;;16.88;3.88;;;21.80;26.30;;;;;;5056680;28;20064;-63
2021/05/23 05:24:05;;;;;;;21.08;3.10;;;21.80;26.30;;;;;;5055301;28;20073;-63
2021/05/23 05:26:31;;;;;;;19.00;3.88;;;21.70;26.40;;;;;;5055827;28;20077;-62
2021/05/23 05:28:58;;;;;;;10.63;2.80;;;21.70;26.50;;;;;;5058570;28;20206;-63
2021/05/23 05:31:24;;;;;;;12.52;2.80;;;21.60;26.30;;;;;;5052078;28;20497;-62
2021/05/23 05:33:51;;;;;;;17.23;3.50;;;21.50;26.50;;;;;;5037821;28;20070;-62
2021/05/23 05:36:17;;;;;;;17.58;3.60;;;21.50;26.60;;;;;;5051749;28;20535;-61
2021/05/23 05:38:44;;;;;;;25.70;3.50;;;21.40;26.50;;;;;;5054466;28;20069;-63
2021/05/23 05:41:12;;;;;;;16.83;3.70;;;21.30;26.50;;;;;;5054125;28;20101;-62
2021/05/23 05:43:38;;;;;;;15.32;2.75;;;21.30;26.60;;;;;;5037932;28;20203;-63
2021/05/23 05:46:04;;;;;;;15.38;3.85;;;21.20;26.60;;;;;;5035530;28;20097;-62
2021/05/23 05:48:31;;;;;;;14.68;2.92;;;21.20;26.60;;;;;;5054284;28;20105;-62
2021/05/23 05:50:58;;;;;;;17.63;3.38;;;21.10;26.50;;;;;;5049915;28;20153;-63
2021/05/23 05:53:24;;;;;;;15.07;3.70;;;21.10;26.10;;;;;;5051456;28;20113;-63
2021/05/23 05:55:51;;;;;;;13.60;2.78;;;21.10;41.80;;;;;;5054453;28;20060;-63
2021/05/23 05:58:17;;;;;;;10.45;2.78;;;21.10;25.90;;;;;;5054965;28;20170;-63
2021/05/23 06:00:44;;;;;;;13.68;2.97;;;20.80;36.10;;;;;;5036513;28;20122;-63
2021/05/23 06:03:10;;;;;;;17.20;2.88;;;20.90;42.60;;;;;;5029905;28;20045;-63
2021/05/23 06:05:37;;;;;;;11.90;2.92;;;21.00;26.00;;;;;;5012385;28;20084;-63
2021/05/23 06:08:03;;;;;;;19.55;2.78;;;21.00;25.40;;;;;;5030943;28;20594;-63
2021/05/23 06:10:30;;;;;;;16.67;2.70;;;20.90;25.40;;;;;;5030390;28;20137;-63
2021/05/23 06:12:56;;;;;;;19.25;3.20;;;20.90;25.60;;;;;;5029328;28;20073;-60
2021/05/23 06:15:23;;;;;;;12.13;2.53;;;20.80;25.30;;;;;;5030305;28;20078;-63
2021/05/23 06:17:52;;;;;;;9.65;2.40;;;20.90;25.20;;;;;;5011616;28;20082;-63
2021/05/23 06:20:19;;;;;;;9.57;2.30;;;20.80;24.80;;;;;;5029438;28;20081;-64
2021/05/23 06:22:46;;;;;;;15.50;2.63;;;20.80;24.70;;;;;;5030586;28;20077;-62
2021/05/23 06:25:13;;;;;;;14.75;2.53;;;20.70;24.10;;;;;;5029145;28;20081;-64
2021/05/23 06:27:39;;;;;;;7.75;2.05;;;20.70;23.60;;;;;;5012176;28;20089;-63
2021/05/23 06:30:07;;;;;;;7.30;1.75;;;20.70;23.50;;;;;;5033247;28;20101;-63
2021/05/23 06:32:34;;;;;;;8.32;1.85;;;20.70;23.40;;;;;;5033205;28;20070;-64
2021/05/23 06:35:00;;;;;;;8.82;1.90;;;20.70;23.00;;;;;;5033344;28;20074;-64
2021/05/23 06:37:27;;;;;;;9.35;1.90;;;20.60;22.50;;;;;;5029874;28;20524;-62
2021/05/23 06:39:53;;;;;;;12.38;1.85;;;20.60;22.30;;;;;;5029818;28;20619;-64
2021/05/23 06:42:23;;;;;;;11.43;2.50;;;20.60;21.90;;;;;;5034573;28;20082;-64
2021/05/23 06:44:50;;;;;;;6.30;2.08;;;20.60;21.90;;;;;;5016060;28;20090;-65
2021/05/23 06:47:16;;;;;;;17.02;3.00;;;20.60;20.80;;;;;;5035020;28;20184;-64
2021/05/23 06:49:43;;;;;;;6.40;2.00;;;20.70;20.60;;;;;;5016663;28;20101;-64
2021/05/23 06:52:09;;;;;;;7.88;1.90;;;20.70;20.40;;;;;;5034058;28;20077;-65
2021/05/23 06:54:36;;;;;;;9.38;2.00;;;20.70;20.40;;;;;;5028366;28;20085;-64
2021/05/23 06:57:03;;;;;;;11.25;3.00;;;20.70;20.40;;;;;;5032987;28;20078;-65
2021/05/23 06:59:29;;;;;;;8.52;1.95;;;20.70;20.30;;;;;;5035362;28;20120;-63
2021/05/23 07:01:56;;;;;;;6.85;1.70;;;20.60;20.40;;;;;;5052235;28;20081;-64
2021/05/23 07:04:22;;;;;;;9.27;2.22;;;20.60;20.30;;;;;;5054312;28;20078;-64
2021/05/23 07:06:49;;;;;;;7.75;1.42;;;20.60;20.60;;;;;;5052066;28;20089;-63
2021/05/23 07:09:16;;;;;;;10.35;1.92;;;20.60;20.00;;;;;;5055959;28;20077;-63
2021/05/23 07:11:43;;;;;;;6.28;1.65;;;20.50;19.90;;;;;;5052220;28;20085;-62
2021/05/23 07:14:10;;;;;;;8.57;1.70;;;20.50;19.90;;;;;;5051410;28;20118;-62
2021/05/23 07:16:36;;;;;;;8.32;1.88;;;20.40;19.90;;;;;;5053452;28;20081;-62
2021/05/23 07:19:03;;;;;;;8.82;1.73;;;20.40;20.10;;;;;;5053082;28;20089;-61
2021/05/23 07:21:29;;;;;;;9.85;1.27;;;20.40;20.00;;;;;;5035234;28;20124;-62
2021/05/23 07:23:56;;;;;;;6.07;1.38;;;20.40;20.10;;;;;;5035578;28;20439;-62
2021/05/23 07:26:22;;;;;;;9.73;2.08;;;20.30;20.20;;;;;;5034721;28;20081;-62
2021/05/23 07:28:49;;;;;;;6.13;1.40;;;20.20;20.10;;;;;;5052362;28;20466;-62
2021/05/23 07:31:19;;;;;;;7.03;1.50;;;20.20;20.10;;;;;;5035481;28;20447;-61
2021/05/23 07:33:46;;;;;;;10.32;1.70;;;20.20;20.10;;;;;;5036283;28;20478;-61
2021/05/23 07:36:12;;;;;;;6.55;1.48;;;20.10;20.10;;;;;;5035689;28;20096;-62
2021/05/23 07:38:41;;;;;;;11.25;2.00;;;20.10;20.20;;;;;;5051972;28;20080;-62
2021/05/23 07:41:08;;;;;;;6.15;1.75;;;20.10;20.60;;;;;;5052017;28;20466;-62
2021/05/23 07:43:34;;;;;;;8.85;1.50;;;20.00;21.00;;;;;;5053564;28;20184;-62
2021/05/23 07:46:01;;;;;;;7.20;1.60;;;20.00;21.90;;;;;;5051520;28;20077;-63
2021/05/23 07:48:28;;;;;;;9.05;1.45;;;19.80;22.20;;;;;;5052801;28;20085;-62
2021/05/23 07:50:54;;;;;;;8.85;2.10;;;19.60;22.20;;;;;;5051026;28;20094;-62
2021/05/23 07:53:21;;;;;;;8.65;1.40;;;19.60;22.60;;;;;;5035457;28;20077;-62
2021/05/23 07:55:47;;;;;;;7.72;1.50;;;19.50;22.70;;;;;;5050607;28;20162;-61
2021/05/23 07:58:14;;;;;;;4.85;1.40;;;19.40;22.90;;;;;;5052105;28;20073;-63
2021/05/23 08:00:40;;;;;;;6.30;1.52;;;19.40;23.00;;;;;;5052227;28;20117;-62
2021/05/23 08:03:07;;;;;;;4.93;1.40;;;19.40;22.90;;;;;;5052257;28;20100;-62
2021/05/23 08:05:34;;;;;;;8.57;1.73;;;19.30;22.70;;;;;;5033874;28;20155;-63
2021/05/23 08:08:00;;;;;;;5.10;1.33;;;19.30;22.80;;;;;;5051064;28;20069;-61
2021/05/23 08:10:27;;;;;;;11.48;2.17;;;19.30;22.60;;;;;;5049992;28;20093;-62
2021/05/23 08:12:54;;;;;;;7.55;1.73;;;19.30;22.60;;;;;;5051804;28;20080;-62
2021/05/23 08:15:20;;;;;;;8.88;2.10;;;19.30;22.40;;;;;;5034629;28;20081;-62
2021/05/23 08:17:52;;;;;;;8.27;1.65;;;19.30;22.40;;;;;;5052793;28;20092;-63
2021/05/23 08:20:19;;;;;;;8.63;1.80;;;19.30;22.20;;;;;;5048892;28;20165;-62
2021/05/23 08:22:45;;;;;;;9.10;1.95;;;19.20;22.30;;;;;;5049102;28;20082;-63
2021/05/23 08:25:12;;;;;;;;;;;19.30;22.30;;;;;;5047181;28;20077;-63
2021/05/23 08:27:40;;;;;;;6.20;1.50;;;19.30;22.40;;;;;;5031759;28;20003;-63
2021/05/23 08:30:08;;;;;;;6.30;1.63;;;19.30;22.40;;;;;;5050568;28;20150;-66
2021/05/23 08:32:35;;;;;;;5.65;1.65;;;19.20;22.00;;;;;;5052715;28;20070;-63
2021/05/23 08:35:01;;;;;;;10.00;1.75;;;19.20;22.10;;;;;;5050395;28;20519;-63
2021/05/23 08:37:28;;;;;;;4.75;1.42;;;19.20;22.00;;;;;;5016074;28;20104;-62
2021/05/23 08:39:54;;;;;;;;;;;19.20;22.00;;;;;;5051447;28;20447;-63
2021/05/23 08:42:21;;;;;;;5.00;1.33;;;19.10;21.90;;;;;;5051894;28;19965;-63
2021/05/23 08:44:48;;;;;;;10.20;1.67;;;19.10;22.20;;;;;;5034285;28;20463;-61
2021/05/23 08:47:15;;;;;;;7.75;2.10;;;19.10;22.50;;;;;;5051594;28;20523;-63
2021/05/23 08:49:42;;;;;;;8.88;1.73;;;18.90;42.50;;;;;;5050718;28;20152;-65
2021/05/23 08:52:09;;;;;;;8.00;1.75;;;19.00;22.40;;;;;;5032723;28;20211;-63
2021/05/23 08:54:41;;;;;;;5.50;1.42;;;18.90;22.20;;;;;;5033490;28;20077;-62
2021/05/23 08:57:08;;;;;;;12.55;1.80;;;18.90;22.30;;;;;;5018012;28;20081;-63
2021/05/23 08:59:35;;;;;;;8.77;2.10;;;18.90;22.50;;;;;;5043347;28;20602;-63
2021/05/23 09:02:08;;;;;;;9.65;1.95;;;18.80;23.10;;;;;;5029418;28;20446;-63
2021/05/23 09:04:45;;;;;;;13.43;2.10;;;18.80;23.40;;;;;;4982081;28;20084;-63
2021/05/23 09:07:11;;;;;;;;;;;18.80;23.70;;;;;;5022822;28;20435;-63
2021/05/23 09:09:47;;;;;;;6.38;1.52;;;18.70;23.80;;;;;;4997496;28;19985;-62
2021/05/23 09:12:16;;;;;;;10.65;1.70;;;18.70;23.90;;;;;;5022591;28;20070;-62
2021/05/23 09:14:45;;;;;;;9.02;1.67;;;18.70;24.20;;;;;;5014963;28;20080;-61
2021/05/23 09:17:26;;;;;;;8.38;2.15;;;18.70;24.30;;;;;;5021388;28;20070;-62
2021/05/23 09:19:54;;;;;;;6.55;1.70;;;18.60;24.20;;;;;;5015826;28;20074;-62
2021/05/23 09:22:27;;;;;;;6.00;1.55;;;18.70;24.20;;;;;;5020028;28;20128;-62
2021/05/23 09:25:05;;;;;;;9.45;1.83;;;18.70;23.70;;;;;;5019631;28;20085;-62
2021/05/23 09:27:33;;;;;;;10.07;1.50;;;18.60;23.70;;;;;;5012048;28;20157;-63
2021/05/23 09:30:13;;;;;;;8.93;1.80;;;18.70;23.60;;;;;;4996659;28;20101;-63
2021/05/23 09:32:42;;;;;;;9.32;1.60;;;18.60;23.40;;;;;;5005376;28;20168;-62
2021/05/23 09:35:10;;;;;;;8.68;1.83;;;18.70;23.00;;;;;;5021723;28;20086;-62
2021/05/23 09:37:37;;;;;;;8.60;1.90;;;18.70;22.80;;;;;;5018047;28;20074;-62
2021/05/23 09:40:16;;;;;;;8.40;2.13;;;18.70;22.70;;;;;;5020422;28;20105;-62
2021/05/23 09:42:52;;;;;;;7.63;2.38;;;18.70;23.10;;;;;;4999903;28;20157;-62
2021/05/23 09:45:20;;;;;;;4.95;1.40;;;18.70;23.40;;;;;;5021855;28;20160;-61
2021/05/23 09:47:59;;;;;;;8.65;1.80;;;18.70;23.60;;;;;;5017034;28;20100;-61
2021/05/23 09:50:34;;;;;;;9.55;1.92;;;18.60;24.20;;;;;;5024612;28;20098;-61
2021/05/23 09:53:01;;;;;;;7.68;1.95;;;18.60;24.80;;;;;;5009527;28;20557;-61
2021/05/23 09:55:28;;;;;;;8.95;1.90;;;18.60;25.40;;;;;;5020321;28;20108;-62
2021/05/23 09:57:54;;;;;;;14.02;2.60;;;18.60;25.90;;;;;;5025722;28;20738;-62
2021/05/23 10:00:22;;;;;;;8.68;2.20;;;18.60;26.50;;;;;;5038853;28;21665;-63
2021/05/23 10:02:59;;;;;;;6.32;1.60;;;18.50;27.30;;;;;;5030558;28;20076;-62
2021/05/23 10:05:27;;;;;;;12.70;2.25;;;18.50;27.10;;;;;;5048309;28;20085;-62
2021/05/23 10:07:54;;;;;;;8.00;1.80;;;18.50;27.30;;;;;;5049252;28;20069;-63
2021/05/23 10:10:20;;;;;;;10.73;2.35;;;18.50;27.60;;;;;;5049620;28;20101;-62
2021/05/23 10:12:47;;;;;;;9.68;1.85;;;18.50;27.70;;;;;;5049688;28;20164;-63
2021/05/23 10:15:13;;;;;;;;;;;18.50;27.90;;;;;;5047898;28;20096;-62
2021/05/23 10:17:42;;;;;;;8.85;2.60;;;18.50;28.10;;;;;;5047607;28;19957;-62
2021/05/23 10:20:10;;;;;;;10.75;2.33;;;18.40;28.30;;;;;;5048553;28;20209;-63
2021/05/23 10:22:38;;;;;;;15.05;2.50;;;18.40;29.00;;;;;;5048838;28;20408;-61
2021/05/23 10:25:10;;;;;;;16.83;2.67;;;18.40;29.10;;;;;;5048953;28;20074;-61
2021/05/23 10:27:45;;;;;;;12.63;2.72;;;18.40;29.30;;;;;;5047879;28;20527;-62
2021/05/23 10:30:13;;;;;;;12.60;2.60;;;18.40;30.10;;;;;;5047394;28;20100;-62
2021/05/23 10:32:41;;;;;;;15.00;2.90;;;18.40;29.70;;;;;;5049592;28;20477;-62
2021/05/23 10:35:32;;;;;;;12.80;2.45;;;18.40;29.70;;;;;;5050173;28;20089;-64
2021/05/23 10:38:08;;;;;;;11.38;2.28;;;18.30;29.60;;;;;;5016402;28;20172;-64
2021/05/23 10:40:37;;;;;;;7.60;2.10;;;18.30;29.70;;;;;;5049446;28;20074;-63
2021/05/23 10:43:04;;;;;;;8.98;2.40;;;18.20;29.70;;;;;;5032759;28;20443;-62
2021/05/23 10:45:41;;;;;;;12.55;2.58;;;18.20;29.80;;;;;;5031308;28;21193;-62
2021/05/23 10:48:19;;;;;;;12.13;2.07;;;18.20;29.80;;;;;;5048237;28;20062;-65
2021/05/23 10:50:47;;;;;;;9.05;2.40;;;18.20;30.00;;;;;;5049024;28;20096;-64
2021/05/23 10:53:15;;;;;;;10.30;2.50;;;18.30;30.00;;;;;;5049978;28;20073;-62
2021/05/23 10:55:55;;;;;;;8.60;2.15;;;18.20;30.00;;;;;;5048666;28;20423;-63
2021/05/23 10:58:27;;;;;;;9.38;2.58;;;18.20;29.90;;;;;;5031365;28;20081;-62
2021/05/23 11:00:56;;;;;;;17.88;3.03;;;18.20;30.10;;;;;;5030000;28;20477;-62
2021/05/23 11:03:26;;;;;;;14.10;2.67;;;18.10;30.00;;;;;;5048863;28;20123;-62
2021/05/23 11:06:06;;;;;;;11.75;1.92;;;18.20;30.00;;;;;;5050549;28;20077;-62
2021/05/23 11:08:33;;;;;;;18.27;2.88;;;18.10;30.00;;;;;;5048434;28;20077;-62
2021/05/23 11:11:00;;;;;;;11.02;2.47;;;18.20;29.70;;;;;;5047551;28;20188;-61
2021/05/23 11:13:27;;;;;;;9.75;2.10;;;18.20;28.90;;;;;;5049485;28;20419;-62
2021/05/23 11:15:54;;;;;;;12.50;2.13;;;18.10;27.90;;;;;;5033056;28;20632;-62
2021/05/23 11:18:25;;;;;;;;;;;18.10;27.80;;;;;;5049869;28;20073;-62
2021/05/23 11:21:00;;;;;;;11.07;2.15;;;18.10;27.60;;;;;;5052196;28;19965;-62
2021/05/23 11:23:28;;;;;;;10.77;1.83;;;18.10;27.60;;;;;;5051247;28;20458;-62
2021/05/23 11:26:11;;;;;;;11.65;2.00;;;18.20;27.70;;;;;;5035111;28;20084;-62
2021/05/23 11:28:39;;;;;;;8.50;2.25;;;18.20;27.50;;;;;;5052841;28;20078;-62
2021/05/23 11:31:09;;;;;;;9.52;1.98;;;18.20;27.20;;;;;;5052013;28;20188;-61
2021/05/23 11:33:35;;;;;;;9.02;2.28;;;18.10;26.70;;;;;;5050298;28;20112;-61
2021/05/23 11:36:02;;;;;;;;;;;18.10;26.20;;;;;;5052153;28;20124;-61
2021/05/23 11:38:38;;;;;;;9.48;1.45;;;18.10;26.20;;;;;;5051875;28;19965;-60
2021/05/23 11:41:05;;;;;;;10.77;1.80;;;18.00;25.60;;;;;;5050812;28;20219;-61
2021/05/23 11:43:32;;;;;;;8.18;1.98;;;18.00;25.50;;;;;;5052032;28;20211;-61
2021/05/23 11:46:02;;;;;;;7.25;1.90;;;18.00;24.70;;;;;;5035113;28;20614;-62
2021/05/23 11:48:39;;;;;;;10.07;1.63;;;18.00;24.00;;;;;;5051778;28;20073;-61
2021/05/23 11:51:09;;;;;;;9.65;1.65;;;17.90;23.70;;;;;;5050520;28;20093;-61
2021/05/23 11:53:42;;;;;;;8.73;2.05;;;18.00;24.70;;;;;;5050573;28;20077;-62
2021/05/23 11:56:09;;;;;;;7.25;2.22;;;18.00;25.00;;;;;;5050529;28;20523;-63
2021/05/23 11:58:36;;;;;;;13.63;1.88;;;18.00;24.80;;;;;;5051224;28;20101;-61
2021/05/23 12:01:30;;;;;;;;;;;18.00;24.50;;;;;;5053596;28;20113;-63
2021/05/23 12:04:12;;;;;;;11.38;1.75;;;17.90;24.30;;;;;;5031592;28;20362;-62
2021/05/23 12:06:38;;;;;;;12.07;2.17;;;18.00;24.30;;;;;;5050783;28;20140;-63
2021/05/23 12:09:16;;;;;;;13.07;1.95;;;18.00;24.00;;;;;;5051741;28;20070;-62
2021/05/23 12:11:48;;;;;;;9.23;1.40;;;17.90;24.00;;;;;;5050922;28;20504;-64
2021/05/23 12:14:22;;;;;;;8.98;1.70;;;17.80;23.70;;;;;;5049838;28;20084;-62
2021/05/23 12:16:50;;;;;;;5.88;1.52;;;17.80;23.90;;;;;;5050827;28;20078;-62
2021/05/23 12:19:17;;;;;;;8.05;1.92;;;17.80;24.00;;;;;;5050305;28;20582;-62
2021/05/23 12:21:43;;;;;;;6.35;1.40;;;17.80;24.30;;;;;;5051322;28;20157;-62
2021/05/23 12:24:10;;;;;;;;;;;17.80;24.00;;;;;;5050851;28;20068;-62
2021/05/23 12:26:39;;;;;;;14.23;2.40;;;17.70;24.00;;;;;;5051969;28;20079;-62
2021/05/23 12:29:05;;;;;;;9.63;1.80;;;17.70;24.50;;;;;;5049394;28;20065;-60
2021/05/23 12:31:32;;;;;;;10.77;1.95;;;17.70;24.50;;;;;;5052659;28;20105;-61
2021/05/23 12:33:58;;;;;;;;;;;17.70;25.30;;;;;;5051548;28;20078;-62
2021/05/23 12:36:28;;;;;;;8.20;1.52;;;17.60;25.40;;;;;;5050882;28;19983;-60
2021/05/23 12:39:02;;;;;;;9.70;1.52;;;17.60;25.90;;;;;;5033040;28;20077;-62
2021/05/23 12:41:35;;;;;;;10.70;2.10;;;17.60;25.90;;;;;;5048848;28;20439;-61
2021/05/23 12:44:02;;;;;;;9.95;2.40;;;17.50;26.10;;;;;;5032034;28;20090;-62
2021/05/23 12:46:28;;;;;;;8.55;1.90;;;17.50;27.00;;;;;;5051240;28;20093;-61
2021/05/23 12:48:54;;;;;;;;;;;17.40;27.40;;;;;;5050948;28;21419;-61
2021/05/23 12:51:22;;;;;;;14.77;2.30;;;17.30;27.90;;;;;;5051044;28;19985;-63